createdAt,value
2022-11-12T00:01:16.969Z,100.00
2022-11-12T00:06:38.812Z,100.00
2022-11-12T00:12:00.671Z,100.00
2022-11-12T00:17:22.518Z,100.00
2022-11-12T00:22:44.762Z,100.00
2022-11-12T00:28:09.753Z,100.00
2022-11-12T00:33:31.745Z,100.00
2022-11-12T00:38:53.576Z,100.00
2022-11-12T00:44:15.429Z,100.00
2022-11-12T00:49:37.347Z,100.00
2022-11-12T00:54:59.173Z,100.00
2022-11-12T01:00:21.165Z,100.00
2022-11-12T01:05:42.961Z,100.00
2022-11-12T01:11:07.086Z,100.00
2022-11-12T01:16:31.394Z,100.00
2022-11-12T01:21:53.209Z,100.00
2022-11-12T01:27:15.104Z,100.00
2022-11-12T01:32:37.122Z,100.00
2022-11-12T01:37:58.959Z,100.00
2022-11-12T01:43:20.765Z,100.00
2022-11-12T01:48:59.698Z,100.00
2022-11-12T01:54:22.589Z,100.00
2022-11-12T01:59:47.988Z,100.00
2022-11-12T02:05:11.244Z,100.00
2022-11-12T02:10:34.801Z,100.00
2022-11-12T02:15:56.611Z,100.00
2022-11-12T02:21:20.302Z,100.00
2022-11-12T02:26:46.055Z,100.00
2022-11-12T02:32:07.913Z,100.00
2022-11-12T02:37:29.709Z,100.00
2022-11-12T02:42:51.574Z,100.00
2022-11-12T02:48:18.953Z,100.00
2022-11-12T02:53:41.629Z,100.00
2022-11-12T02:59:03.596Z,100.00
2022-11-12T03:04:25.459Z,100.00
2022-11-12T03:09:47.912Z,100.00
2022-11-12T03:15:10.088Z,100.00
2022-11-12T03:20:31.922Z,100.00
2022-11-12T03:25:53.945Z,100.00
2022-11-12T03:31:15.792Z,100.00
2022-11-12T03:36:37.651Z,100.00
2022-11-12T03:41:59.500Z,100.00
2022-11-12T03:47:21.356Z,100.00
2022-11-12T03:52:47.597Z,100.00
2022-11-12T03:58:09.406Z,100.00
2022-11-12T04:03:31.232Z,100.00
2022-11-12T04:08:53.013Z,100.00
2022-11-12T04:14:14.797Z,100.00
2022-11-12T04:19:36.628Z,100.00
2022-11-12T04:24:58.444Z,100.00
2022-11-12T04:30:20.297Z,100.00
2022-11-12T04:35:42.116Z,100.00
2022-11-12T04:41:03.914Z,100.00
2022-11-12T04:46:25.718Z,100.00
2022-11-12T04:51:47.537Z,100.00
2022-11-12T04:57:09.640Z,100.00
2022-11-12T05:02:31.514Z,100.00
2022-11-12T05:07:53.321Z,100.00
2022-11-12T05:13:15.115Z,100.00
2022-11-12T05:18:36.893Z,100.00
2022-11-12T05:23:58.772Z,100.00
2022-11-12T05:29:20.619Z,100.00
2022-11-12T05:34:42.772Z,100.00
2022-11-12T05:40:05.118Z,100.00
2022-11-12T05:45:26.950Z,100.00
2022-11-12T05:51:11.928Z,100.00
2022-11-12T05:56:35.602Z,100.00
2022-11-12T06:01:57.407Z,100.00
2022-11-12T06:07:19.321Z,100.00
2022-11-12T06:12:41.436Z,100.00
2022-11-12T06:18:03.343Z,100.00
2022-11-12T06:23:25.125Z,100.00
2022-11-12T06:28:47.804Z,100.00
2022-11-12T06:34:09.642Z,100.00
2022-11-12T06:39:32.625Z,100.00
2022-11-12T06:44:54.466Z,100.00
2022-11-12T06:50:16.377Z,100.00
2022-11-12T06:55:38.181Z,100.00
2022-11-12T07:01:10.965Z,100.00
2022-11-12T07:06:34.387Z,100.00
2022-11-12T07:11:56.316Z,100.00
2022-11-12T07:17:18.224Z,100.00
2022-11-12T07:22:40.059Z,100.00
2022-11-12T07:28:01.878Z,100.00
2022-11-12T07:33:23.897Z,100.00
2022-11-12T07:38:46.228Z,100.00
2022-11-12T07:44:08.066Z,100.00
2022-11-12T07:49:29.983Z,100.00
2022-11-12T07:54:51.918Z,100.00
2022-11-12T08:00:14.547Z,100.00
2022-11-12T08:05:36.323Z,100.00
2022-11-12T08:10:59.622Z,100.00
2022-11-12T08:16:21.554Z,100.00
2022-11-12T08:21:43.379Z,100.00
2022-11-12T08:27:05.226Z,100.00
2022-11-12T08:32:27.413Z,100.00
2022-11-12T08:37:49.315Z,100.00
2022-11-12T08:43:11.522Z,100.00
2022-11-12T08:48:34.334Z,100.00
2022-11-12T08:53:56.173Z,100.00
2022-11-12T08:59:17.952Z,100.00
2022-11-12T09:04:39.761Z,100.00
2022-11-12T09:10:01.695Z,100.00
2022-11-12T09:15:40.213Z,100.00
2022-11-12T09:21:08.387Z,100.00
2022-11-12T09:26:30.168Z,100.00
2022-11-12T09:31:52.022Z,100.00
2022-11-12T09:37:13.927Z,100.00
2022-11-12T09:42:36.767Z,100.00
2022-11-12T09:48:05.940Z,100.00
2022-11-12T09:53:56.427Z,100.00
2022-11-12T09:59:19.302Z,100.00
2022-11-12T10:04:51.454Z,100.00
2022-11-12T10:10:19.067Z,100.00
2022-11-12T10:15:53.887Z,99.04
2022-11-12T10:21:24.444Z,99.05
2022-11-12T10:26:46.721Z,99.58
2022-11-12T10:32:15.121Z,99.21
2022-11-12T10:37:42.740Z,98.77
2022-11-12T10:43:25.582Z,98.09
2022-11-12T10:48:57.197Z,98.39
2022-11-12T10:54:27.775Z,98.28
2022-11-12T11:00:12.288Z,97.27
2022-11-12T11:05:35.575Z,98.23
2022-11-12T11:11:28.161Z,97.72
2022-11-12T11:16:53.154Z,99.31
2022-11-12T11:22:27.312Z,98.13
2022-11-12T11:28:15.028Z,97.92
2022-11-12T11:34:02.591Z,98.11
2022-11-12T11:39:44.612Z,98.53
2022-11-12T11:45:16.238Z,98.01
2022-11-12T11:50:54.705Z,97.65
2022-11-12T11:56:40.072Z,98.68
2022-11-12T12:02:17.630Z,98.63
2022-11-12T12:07:58.978Z,97.09
2022-11-12T12:14:00.710Z,97.31
2022-11-12T12:19:25.584Z,97.68
2022-11-12T12:24:54.856Z,97.91
2022-11-12T12:30:22.765Z,97.02
2022-11-12T12:35:54.960Z,96.54
2022-11-12T12:41:26.858Z,96.92
2022-11-12T12:46:54.892Z,97.28
2022-11-12T12:52:16.946Z,97.24
2022-11-12T12:57:39.827Z,96.62
2022-11-12T13:03:02.071Z,97.25
2022-11-12T13:08:26.181Z,96.64
2022-11-12T13:13:48.266Z,96.31
2022-11-12T13:19:10.114Z,95.08
2022-11-12T13:25:26.105Z,94.81
2022-11-12T13:30:47.839Z,95.93
2022-11-12T13:36:27.857Z,94.88
2022-11-12T13:41:59.377Z,95.10
2022-11-12T13:47:22.477Z,95.84
2022-11-12T13:52:46.087Z,95.84
2022-11-12T13:58:19.939Z,95.57
2022-11-12T14:03:48.603Z,95.98
2022-11-12T14:09:13.349Z,95.81
2022-11-12T14:15:12.504Z,95.96
2022-11-12T14:20:40.271Z,97.14
2022-11-12T14:26:02.111Z,97.11
2022-11-12T14:31:25.248Z,96.88
2022-11-12T14:36:47.717Z,97.77
2022-11-12T14:42:15.138Z,98.01
2022-11-12T14:47:36.987Z,98.07
2022-11-12T14:53:09.625Z,97.41
2022-11-12T14:58:33.254Z,98.98
2022-11-12T15:04:10.981Z,98.15
2022-11-12T15:09:35.241Z,98.82
2022-11-12T15:15:26.509Z,97.70
2022-11-12T15:21:27.909Z,98.40
2022-11-12T15:26:50.428Z,99.06
2022-11-12T15:32:14.018Z,100.00
2022-11-12T15:37:42.336Z,100.00
2022-11-12T15:43:14.411Z,99.44
2022-11-12T15:48:36.233Z,100.00
2022-11-12T15:53:58.001Z,100.00
2022-11-12T15:59:19.821Z,100.00
2022-11-12T16:04:41.613Z,100.00
2022-11-12T16:10:03.612Z,100.00
2022-11-12T16:15:25.655Z,100.00
2022-11-12T16:20:48.025Z,100.00
2022-11-12T16:26:14.681Z,100.00
2022-11-12T16:31:36.503Z,100.00
2022-11-12T16:36:58.690Z,100.00
2022-11-12T16:42:20.504Z,100.00
2022-11-12T16:47:49.903Z,100.00
2022-11-12T16:53:12.045Z,100.00
2022-11-12T16:58:33.811Z,100.00
2022-11-12T17:03:56.834Z,100.00
2022-11-12T17:09:18.609Z,100.00
2022-11-12T17:14:40.388Z,100.00
2022-11-12T17:20:02.239Z,100.00
2022-11-12T17:25:24.012Z,100.00
2022-11-12T17:30:45.787Z,100.00
2022-11-12T17:36:09.917Z,100.00
2022-11-12T17:41:31.810Z,100.00
2022-11-12T17:46:53.670Z,100.00
2022-11-12T17:52:15.533Z,100.00
2022-11-12T17:57:37.460Z,100.00
2022-11-12T18:02:59.356Z,100.00
2022-11-12T18:08:21.178Z,100.00
2022-11-12T18:13:42.976Z,100.00
2022-11-12T18:19:05.093Z,100.00
2022-11-12T18:24:26.897Z,100.00
2022-11-12T18:29:48.665Z,100.00
2022-11-12T18:35:10.452Z,100.00
2022-11-12T18:40:32.254Z,100.00
2022-11-12T18:45:57.972Z,100.00
2022-11-12T18:51:20.202Z,100.00
2022-11-12T18:56:42.302Z,100.00
2022-11-12T19:02:04.183Z,100.00
2022-11-12T19:07:26.084Z,100.00
2022-11-12T19:12:47.862Z,100.00
2022-11-12T19:18:09.647Z,100.00
2022-11-12T19:23:31.727Z,100.00
2022-11-12T19:28:54.036Z,100.00
2022-11-12T19:34:15.846Z,100.00
2022-11-12T19:39:37.629Z,100.00
2022-11-12T19:44:59.472Z,100.00
2022-11-12T19:50:24.655Z,100.00
2022-11-12T19:55:46.784Z,100.00
2022-11-12T20:01:10.873Z,100.00
2022-11-12T20:06:32.688Z,100.00
2022-11-12T20:11:54.490Z,100.00
2022-11-12T20:17:16.277Z,100.00
2022-11-12T20:22:38.108Z,100.00
2022-11-12T20:27:59.927Z,100.00
2022-11-12T20:33:21.691Z,100.00
2022-11-12T20:38:44.590Z,100.00
2022-11-12T20:44:06.658Z,100.00
2022-11-12T20:49:28.573Z,100.00
2022-11-12T20:54:50.364Z,100.00
2022-11-12T21:00:14.720Z,100.00
2022-11-12T21:05:37.805Z,100.00
2022-11-12T21:11:02.298Z,100.00
2022-11-12T21:16:24.126Z,100.00
2022-11-12T21:21:46.128Z,100.00
2022-11-12T21:27:07.926Z,100.00
2022-11-12T21:32:29.716Z,100.00
2022-11-12T21:37:51.588Z,100.00
2022-11-12T21:43:13.429Z,100.00
2022-11-12T21:48:35.763Z,100.00
2022-11-12T21:54:00.531Z,100.00
2022-11-12T21:59:22.316Z,100.00
2022-11-12T22:04:44.146Z,100.00
2022-11-12T22:10:06.505Z,100.00
2022-11-12T22:15:28.297Z,100.00
2022-11-12T22:21:00.958Z,100.00
2022-11-12T22:26:25.525Z,100.00
2022-11-12T22:31:47.367Z,100.00
2022-11-12T22:37:09.137Z,100.00
2022-11-12T22:42:30.949Z,100.00
2022-11-12T22:47:52.839Z,100.00
2022-11-12T22:53:14.624Z,100.00
2022-11-12T22:58:37.578Z,100.00
2022-11-12T23:04:01.747Z,100.00
2022-11-12T23:09:23.525Z,100.00
2022-11-12T23:14:45.325Z,100.00
2022-11-12T23:20:07.749Z,100.00
2022-11-12T23:25:29.789Z,100.00
2022-11-12T23:30:51.615Z,100.00
2022-11-12T23:36:13.996Z,100.00
2022-11-12T23:41:35.989Z,100.00
2022-11-12T23:46:57.829Z,100.00
2022-11-12T23:52:19.604Z,100.00
2022-11-12T23:57:41.395Z,100.00
